createdAt,value
2022-10-17T00:00:49.918Z,101014.16
2022-10-17T00:03:39.966Z,101013.53
2022-10-17T00:06:29.123Z,101008.19
2022-10-17T00:09:19.133Z,101011.44
2022-10-17T00:12:09.076Z,101007.28
2022-10-17T00:14:57.896Z,101018.00
2022-10-17T00:17:47.067Z,101021.69
2022-10-17T00:20:39.010Z,101019.66
2022-10-17T00:23:30.648Z,101022.72
2022-10-17T00:26:22.072Z,101022.09
2022-10-17T00:29:11.296Z,101014.06
2022-10-17T00:32:00.371Z,101022.09
2022-10-17T00:34:49.434Z,101021.25
2022-10-17T00:37:38.299Z,101020.44
2022-10-17T00:40:28.272Z,101016.72
2022-10-17T00:43:19.249Z,101021.25
2022-10-17T00:46:07.719Z,101025.97
2022-10-17T00:48:57.457Z,101019.59
2022-10-17T00:51:50.484Z,101018.13
2022-10-17T00:54:41.536Z,101016.69
2022-10-17T00:57:31.971Z,101022.44
2022-10-17T01:00:21.925Z,101021.63
2022-10-17T01:03:10.425Z,101022.84
2022-10-17T01:05:58.990Z,101024.50
2022-10-17T01:08:47.515Z,101026.53
2022-10-17T01:11:41.621Z,101019.09
2022-10-17T01:14:33.889Z,101018.28
2022-10-17T01:17:31.698Z,101021.97
2022-10-17T01:20:44.354Z,101019.09
2022-10-17T01:23:49.742Z,101015.38
2022-10-17T01:26:52.048Z,101015.59
2022-10-17T01:29:55.055Z,101010.59
2022-10-17T01:32:51.793Z,101022.09
2022-10-17T01:35:43.747Z,101013.88
2022-10-17T01:38:36.667Z,101028.06
2022-10-17T01:41:30.742Z,101023.56
2022-10-17T01:44:21.860Z,101025.41
2022-10-17T01:47:12.684Z,101020.06
2022-10-17T01:50:06.128Z,101020.69
2022-10-17T01:52:56.469Z,101013.28
2022-10-17T01:55:47.395Z,101014.69
2022-10-17T01:58:39.357Z,101017.38
2022-10-17T02:01:28.567Z,101010.38
2022-10-17T02:04:17.033Z,101003.38
2022-10-17T02:07:10.903Z,101007.69
2022-10-17T02:09:59.304Z,101002.34
2022-10-17T02:12:51.806Z,100996.34
2022-10-17T02:16:06.325Z,100997.75
2022-10-17T02:19:09.516Z,100994.06
2022-10-17T02:22:07.280Z,101001.41
2022-10-17T02:25:02.390Z,100999.75
2022-10-17T02:27:55.585Z,100996.75
2022-10-17T02:30:48.189Z,100997.75
2022-10-17T02:33:40.793Z,100986.03
2022-10-17T02:36:32.615Z,100995.25
2022-10-17T02:39:22.068Z,101005.75
2022-10-17T02:42:14.201Z,101007.78
2022-10-17T02:45:05.068Z,100999.75
2022-10-17T02:47:59.248Z,101011.13
2022-10-17T02:50:56.393Z,101006.97
2022-10-17T02:53:50.149Z,101013.78
2022-10-17T02:56:43.475Z,101011.13
2022-10-17T02:59:35.489Z,101018.47
2022-10-17T03:02:24.317Z,101006.97
2022-10-17T03:05:14.912Z,101006.97
2022-10-17T03:08:03.793Z,101009.81
2022-10-17T03:10:52.499Z,100998.09
2022-10-17T03:13:40.955Z,100998.31
2022-10-17T03:16:30.819Z,101001.16
2022-10-17T03:19:19.170Z,100999.13
2022-10-17T03:22:09.945Z,101005.69
2022-10-17T03:24:58.463Z,101006.50
2022-10-17T03:27:46.891Z,101005.25
2022-10-17T03:30:35.793Z,101011.63
2022-10-17T03:33:27.253Z,101013.28
2022-10-17T03:36:17.069Z,101010.22
2022-10-17T03:39:05.639Z,101012.25
2022-10-17T03:41:54.032Z,101028.31
2022-10-17T03:44:42.498Z,101019.66
2022-10-17T03:47:31.290Z,101017.97
2022-10-17T03:50:21.326Z,101021.66
2022-10-17T03:53:09.778Z,101018.19
2022-10-17T03:55:58.610Z,101027.41
2022-10-17T03:58:47.327Z,101031.56
2022-10-17T04:01:35.795Z,101030.72
2022-10-17T04:04:24.309Z,101032.75
2022-10-17T04:07:14.113Z,101029.06
2022-10-17T04:10:02.555Z,101037.06
2022-10-17T04:12:51.027Z,101045.50
2022-10-17T04:15:39.413Z,101042.63
2022-10-17T04:18:28.183Z,101042.44
2022-10-17T04:21:16.635Z,101044.47
2022-10-17T04:24:07.299Z,101042.25
2022-10-17T04:26:56.043Z,101041.41
2022-10-17T04:29:44.987Z,101045.50
2022-10-17T04:32:33.411Z,101045.50
2022-10-17T04:35:21.891Z,101043.84
2022-10-17T04:38:10.403Z,101048.56
2022-10-17T04:41:03.029Z,101049.19
2022-10-17T04:43:51.640Z,101051.31
2022-10-17T04:46:40.120Z,101057.38
2022-10-17T04:49:28.735Z,101058.47
2022-10-17T04:52:17.247Z,101062.63
2022-10-17T04:55:06.434Z,101062.81
2022-10-17T04:57:56.375Z,101067.31
2022-10-17T05:00:45.062Z,101061.22
2022-10-17T05:03:33.627Z,101063.66
2022-10-17T05:06:23.401Z,101070.19
2022-10-17T05:09:11.915Z,101075.94
2022-10-17T05:12:00.350Z,101075.09
2022-10-17T05:14:50.182Z,101074.28
2022-10-17T05:17:38.617Z,101065.25
2022-10-17T05:20:27.224Z,101077.59
2022-10-17T05:23:15.655Z,101070.59
2022-10-17T05:26:04.134Z,101079.16
2022-10-17T05:28:53.221Z,101080.66
2022-10-17T05:31:43.122Z,101076.41
2022-10-17T05:34:31.594Z,101089.22
2022-10-17T05:37:19.989Z,101082.16
2022-10-17T05:40:09.724Z,101080.91
2022-10-17T05:42:58.267Z,101088.94
2022-10-17T05:45:47.004Z,101090.34
2022-10-17T05:48:37.075Z,101096.06
2022-10-17T05:51:27.724Z,101095.59
2022-10-17T05:54:16.831Z,101103.81
2022-10-17T05:57:05.979Z,101109.16
2022-10-17T05:59:54.741Z,101100.50
2022-10-17T06:02:43.550Z,101110.72
2022-10-17T06:05:33.819Z,101107.88
2022-10-17T06:08:23.477Z,101112.78
2022-10-17T06:11:12.790Z,101115.25
2022-10-17T06:14:01.649Z,101116.47
2022-10-17T06:16:50.538Z,101116.63
2022-10-17T06:19:41.532Z,101125.28
2022-10-17T06:22:32.289Z,101129.28
2022-10-17T06:25:21.237Z,101132.22
2022-10-17T06:28:10.645Z,101141.00
2022-10-17T06:30:59.506Z,101134.16
2022-10-17T06:33:48.539Z,101131.09
2022-10-17T06:36:38.417Z,101140.34
2022-10-17T06:39:33.939Z,101142.34
2022-10-17T06:42:23.236Z,101142.75
2022-10-17T06:45:12.625Z,101148.47
2022-10-17T06:48:01.241Z,101159.16
2022-10-17T06:50:50.113Z,101157.50
2022-10-17T06:53:40.031Z,101153.06
2022-10-17T06:56:30.471Z,101162.00
2022-10-17T06:59:19.100Z,101162.84
2022-10-17T07:02:08.539Z,101170.50
2022-10-17T07:04:57.593Z,101174.09
2022-10-17T07:07:48.574Z,101171.22
2022-10-17T07:10:41.444Z,101179.06
2022-10-17T07:13:34.494Z,101178.16
2022-10-17T07:16:27.094Z,101174.44
2022-10-17T07:19:15.889Z,101174.44
2022-10-17T07:22:04.610Z,101179.78
2022-10-17T07:24:53.266Z,101184.03
2022-10-17T07:27:42.264Z,101182.75
2022-10-17T07:30:32.457Z,101183.56
2022-10-17T07:33:21.327Z,101188.38
2022-10-17T07:36:10.044Z,101184.03
2022-10-17T07:39:01.054Z,101192.72
2022-10-17T07:41:50.765Z,101192.06
2022-10-17T07:44:39.213Z,101197.72
2022-10-17T07:47:31.304Z,101199.38
2022-10-17T07:50:21.738Z,101197.31
2022-10-17T07:53:10.585Z,101194.66
2022-10-17T07:55:59.104Z,101190.31
2022-10-17T07:58:48.278Z,101187.91
2022-10-17T08:01:36.961Z,101198.16
2022-10-17T08:04:26.870Z,101201.91
2022-10-17T08:07:22.087Z,101201.38
2022-10-17T08:10:13.791Z,101193.72
2022-10-17T08:13:04.127Z,101197.88
2022-10-17T08:15:52.596Z,101207.56
2022-10-17T08:18:42.403Z,101204.88
2022-10-17T08:21:32.277Z,101204.34
2022-10-17T08:24:20.975Z,101196.94
2022-10-17T08:27:11.553Z,101199.53
2022-10-17T08:30:00.390Z,101193.81
2022-10-17T08:32:48.813Z,101196.66
2022-10-17T08:35:37.296Z,101193.16
2022-10-17T08:38:27.974Z,101193.06
2022-10-17T08:41:25.380Z,101193.06
2022-10-17T08:44:20.521Z,101192.09
2022-10-17T08:47:13.499Z,101204.97
2022-10-17T08:50:05.730Z,101195.00
2022-10-17T08:52:56.659Z,101195.06
2022-10-17T08:55:48.426Z,101191.38
2022-10-17T08:58:40.221Z,101200.13
2022-10-17T09:01:35.393Z,101187.72
2022-10-17T09:04:40.387Z,101195.06
2022-10-17T09:07:33.173Z,101190.28
2022-10-17T09:10:27.578Z,101197.06
2022-10-17T09:13:27.246Z,101192.81
2022-10-17T09:16:31.201Z,101190.69
2022-10-17T09:19:24.499Z,101190.59
2022-10-17T09:22:16.554Z,101191.22
2022-10-17T09:25:08.100Z,101189.44
2022-10-17T09:28:01.240Z,101195.81
2022-10-17T09:30:55.356Z,101192.66
2022-10-17T09:34:00.469Z,101196.81
2022-10-17T09:36:49.307Z,101187.59
2022-10-17T09:39:38.097Z,101190.44
2022-10-17T09:42:28.456Z,101197.09
2022-10-17T09:45:24.696Z,101190.91
2022-10-17T09:48:20.867Z,101196.34
2022-10-17T09:51:25.089Z,101195.06
2022-10-17T09:54:22.551Z,101186.91
2022-10-17T09:57:14.949Z,101181.94
2022-10-17T10:00:06.199Z,101179.00
2022-10-17T10:03:10.848Z,101181.13
2022-10-17T10:06:04.188Z,101187.84
2022-10-17T10:08:54.639Z,101188.59
2022-10-17T10:11:48.027Z,101184.03
2022-10-17T10:14:40.656Z,101190.50
2022-10-17T10:17:36.243Z,101191.41
2022-10-17T10:20:30.918Z,101196.09
2022-10-17T10:23:22.940Z,101192.53
2022-10-17T10:26:22.300Z,101188.94
2022-10-17T10:29:23.707Z,101183.22
2022-10-17T10:32:14.095Z,101186.41
2022-10-17T10:35:05.770Z,101196.47
2022-10-17T10:37:56.208Z,101188.72
2022-10-17T10:40:49.817Z,101176.72
2022-10-17T10:43:42.514Z,101162.00
2022-10-17T10:46:32.208Z,101160.28
2022-10-17T10:49:31.582Z,101162.06
2022-10-17T10:52:31.721Z,101168.03
2022-10-17T10:55:25.818Z,101173.00
2022-10-17T10:58:26.153Z,101176.72
2022-10-17T11:01:23.491Z,101181.44
2022-10-17T11:04:23.434Z,101168.81
2022-10-17T11:07:15.104Z,101167.66
2022-10-17T11:10:10.869Z,101166.50
2022-10-17T11:13:02.485Z,101169.47
2022-10-17T11:15:56.578Z,101160.34
2022-10-17T11:18:49.148Z,101157.97
2022-10-17T11:21:45.601Z,101165.25
2022-10-17T11:24:39.102Z,101156.44
2022-10-17T11:27:28.155Z,101157.84
2022-10-17T11:30:17.318Z,101146.13
2022-10-17T11:33:07.882Z,101145.88
2022-10-17T11:36:01.958Z,101140.38
2022-10-17T11:38:53.589Z,101132.41
2022-10-17T11:41:44.895Z,101138.53
2022-10-17T11:44:36.874Z,101133.63
2022-10-17T11:47:33.764Z,101136.03
2022-10-17T11:53:48.670Z,101121.38
2022-10-17T11:56:42.954Z,101121.38
2022-10-17T11:59:55.405Z,101122.00
2022-10-17T12:02:48.999Z,101105.84
2022-10-17T12:05:46.559Z,101109.03
2022-10-17T12:08:40.536Z,101101.13
2022-10-17T12:11:35.750Z,101101.13
2022-10-17T12:14:42.209Z,101090.59
2022-10-17T12:17:34.754Z,101086.06
2022-10-17T12:20:29.055Z,101081.78
2022-10-17T12:23:29.984Z,101078.75
2022-10-17T12:26:27.443Z,101075.41
2022-10-17T12:29:27.427Z,101069.19
2022-10-17T12:32:16.799Z,101072.31
2022-10-17T12:35:05.924Z,101062.34
2022-10-17T12:38:25.234Z,101065.84
2022-10-17T12:41:15.375Z,101063.19
2022-10-17T12:44:03.827Z,101060.75
2022-10-17T12:46:53.241Z,101045.91
2022-10-17T12:49:46.657Z,101054.25
2022-10-17T12:52:59.956Z,101046.13
2022-10-17T12:55:51.745Z,101049.53
2022-10-17T12:58:44.791Z,101042.50
2022-10-17T13:01:34.796Z,101049.72
2022-10-17T13:04:23.844Z,101041.66
2022-10-17T13:07:19.624Z,101040.41
2022-10-17T13:10:17.601Z,101046.81
2022-10-17T13:13:15.302Z,101042.91
2022-10-17T13:16:05.562Z,101046.31
2022-10-17T13:18:54.493Z,101045.81
2022-10-17T13:21:51.431Z,101048.91
2022-10-17T13:24:41.270Z,101046.63
2022-10-17T13:27:31.811Z,101044.56
2022-10-17T13:30:29.414Z,101050.34
2022-10-17T13:33:32.373Z,101045.88
2022-10-17T13:36:20.990Z,101043.47
2022-10-17T13:39:12.342Z,101039.44
2022-10-17T13:42:04.073Z,101044.22
2022-10-17T13:44:53.149Z,101039.69
2022-10-17T13:47:43.406Z,101043.13
2022-10-17T13:50:44.648Z,101038.66
2022-10-17T13:53:34.864Z,101045.66
2022-10-17T13:56:29.249Z,101049.31
2022-10-17T13:59:25.395Z,101053.13
2022-10-17T14:02:17.198Z,101059.44
2022-10-17T14:05:18.132Z,101054.88
2022-10-17T14:08:14.272Z,101064.34
2022-10-17T14:11:16.307Z,101071.78
2022-10-17T14:14:07.123Z,101076.50
2022-10-17T14:16:55.923Z,101070.13
2022-10-17T14:19:48.455Z,101064.50
2022-10-17T14:22:50.428Z,101075.22
2022-10-17T14:25:45.242Z,101062.63
2022-10-17T14:28:34.439Z,101064.28
2022-10-17T14:31:27.321Z,101070.22
2022-10-17T14:34:32.458Z,101073.75
2022-10-17T14:37:33.501Z,101072.47
2022-10-17T14:40:24.618Z,101074.56
2022-10-17T14:43:23.994Z,101074.75
2022-10-17T14:46:17.372Z,101074.75
2022-10-17T14:49:08.660Z,101074.72
2022-10-17T14:52:29.740Z,101072.47
2022-10-17T14:55:24.644Z,101078.22
2022-10-17T14:58:35.469Z,101075.31
2022-10-17T15:01:24.642Z,101084.00
2022-10-17T15:04:13.544Z,101087.81
2022-10-17T15:07:02.597Z,101088.91
2022-10-17T15:09:52.997Z,101103.72
2022-10-17T15:12:51.076Z,101096.31
2022-10-17T15:15:52.462Z,101102.94
2022-10-17T15:18:41.583Z,101101.66
2022-10-17T15:21:40.517Z,101102.88
2022-10-17T15:24:32.308Z,101100.63
2022-10-17T15:27:22.581Z,101094.44
2022-10-17T15:30:21.612Z,101101.91
2022-10-17T15:33:12.400Z,101107.84
2022-10-17T15:36:01.681Z,101098.59
2022-10-17T15:38:51.030Z,101104.53
2022-10-17T15:41:39.921Z,101111.31
2022-10-17T15:44:29.428Z,101116.03
2022-10-17T15:47:24.878Z,101116.41
2022-10-17T15:50:16.630Z,101117.63
2022-10-17T15:53:07.661Z,101107.88
2022-10-17T15:55:56.942Z,101108.44
2022-10-17T15:58:45.601Z,101109.25
2022-10-17T16:01:35.514Z,101105.84
2022-10-17T16:04:27.472Z,101114.22
2022-10-17T16:10:35.265Z,101126.91
2022-10-17T16:13:25.707Z,101133.50
2022-10-17T16:16:31.584Z,101137.56
2022-10-17T16:19:21.267Z,101141.66
2022-10-17T16:22:19.306Z,101145.41
2022-10-17T16:25:10.383Z,101145.34
2022-10-17T16:28:02.322Z,101145.34
2022-10-17T16:30:52.895Z,101145.03
2022-10-17T16:33:41.629Z,101147.88
2022-10-17T16:36:30.649Z,101152.38
2022-10-17T16:39:21.747Z,101153.00
2022-10-17T16:42:10.503Z,101152.75
2022-10-17T16:44:59.882Z,101151.09
2022-10-17T16:47:48.792Z,101159.13
2022-10-17T16:50:41.546Z,101161.16
2022-10-17T16:53:31.916Z,101174.28
2022-10-17T16:56:24.076Z,101174.47
2022-10-17T16:59:13.010Z,101168.28
2022-10-17T17:02:01.397Z,101167.84
2022-10-17T17:04:49.861Z,101171.59
2022-10-17T17:07:38.398Z,101177.88
2022-10-17T17:10:26.858Z,101167.16
2022-10-17T17:13:16.862Z,101179.59
2022-10-17T17:16:07.415Z,101175.44
2022-10-17T17:18:57.552Z,101178.38
2022-10-17T17:21:50.204Z,101187.88
2022-10-17T17:24:39.430Z,101188.56
2022-10-17T17:27:29.826Z,101184.25
2022-10-17T17:30:20.584Z,101184.88
2022-10-17T17:33:11.520Z,101181.47
2022-10-17T17:36:02.323Z,101192.69
2022-10-17T17:38:52.268Z,101190.44
2022-10-17T17:41:43.977Z,101186.56
2022-10-17T17:44:34.405Z,101185.88
2022-10-17T17:47:25.334Z,101189.84
2022-10-17T17:50:15.368Z,101191.13
2022-10-17T17:53:04.016Z,101181.06
2022-10-17T17:56:03.190Z,101194.28
2022-10-17T17:58:58.196Z,101184.50
2022-10-17T18:01:47.427Z,101189.72
2022-10-17T18:04:37.485Z,101185.81
2022-10-17T18:07:26.084Z,101172.34
2022-10-17T18:13:04.047Z,101183.31
2022-10-17T18:15:52.823Z,101179.50
2022-10-17T18:18:42.201Z,101182.75
2022-10-17T18:21:32.302Z,101186.28
2022-10-17T18:24:20.820Z,101184.56
2022-10-17T18:27:09.334Z,101185.19
2022-10-17T18:29:57.919Z,101179.94
2022-10-17T18:32:46.419Z,101175.34
2022-10-17T18:35:36.130Z,101183.47
2022-10-17T18:38:26.330Z,101182.47
2022-10-17T18:41:16.108Z,101191.88
2022-10-17T18:44:04.685Z,101176.63
2022-10-17T18:46:53.472Z,101181.16
2022-10-17T18:49:42.870Z,101174.16
2022-10-17T18:52:31.245Z,101169.44
2022-10-17T18:55:21.227Z,101179.06
2022-10-17T18:58:10.672Z,101172.94
2022-10-17T19:01:04.446Z,101179.84
2022-10-17T19:03:54.135Z,101177.53
2022-10-17T19:06:43.318Z,101177.53
2022-10-17T19:09:31.807Z,101182.28
2022-10-17T19:12:21.669Z,101175.31
2022-10-17T19:15:11.501Z,101169.53
2022-10-17T19:17:59.915Z,101165.63
2022-10-17T19:20:48.463Z,101170.56
2022-10-17T19:23:38.029Z,101184.78
2022-10-17T19:26:27.515Z,101180.84
2022-10-17T19:29:18.946Z,101187.88
2022-10-17T19:32:14.193Z,101185.63
2022-10-17T19:35:05.937Z,101189.91
2022-10-17T19:37:54.415Z,101190.97
2022-10-17T19:40:42.841Z,101192.63
2022-10-17T19:43:31.570Z,101202.91
2022-10-17T19:46:24.648Z,101200.09
2022-10-17T19:49:13.252Z,101191.38
2022-10-17T19:52:01.892Z,101203.91
2022-10-17T19:54:53.280Z,101207.03
2022-10-17T19:57:41.732Z,101214.06
2022-10-17T20:00:30.153Z,101213.38
2022-10-17T20:03:21.422Z,101218.41
2022-10-17T20:06:10.218Z,101218.84
2022-10-17T20:08:58.686Z,101213.50
2022-10-17T20:11:47.528Z,101216.41
2022-10-17T20:14:40.079Z,101219.72
2022-10-17T20:17:29.446Z,101221.81
2022-10-17T20:20:19.749Z,101233.78
2022-10-17T20:23:08.248Z,101230.91
2022-10-17T20:26:08.709Z,101236.13
2022-10-17T20:29:13.419Z,101233.44
2022-10-17T20:32:04.311Z,101231.88
2022-10-17T20:34:53.380Z,101226.13
2022-10-17T20:37:43.139Z,101228.44
2022-10-17T20:40:35.569Z,101232.16
2022-10-17T20:43:24.303Z,101240.91
2022-10-17T20:46:23.541Z,101249.56
2022-10-17T20:49:24.917Z,101240.28
2022-10-17T20:52:13.342Z,101245.03
2022-10-17T20:55:04.340Z,101245.34
2022-10-17T20:57:54.262Z,101244.88
2022-10-17T21:00:43.641Z,101254.81
2022-10-17T21:03:32.087Z,101261.16
2022-10-17T21:06:21.333Z,101250.25
2022-10-17T21:09:10.924Z,101239.56
2022-10-17T21:14:54.736Z,101236.06
2022-10-17T21:17:43.129Z,101242.44
2022-10-17T21:20:32.456Z,101244.50
2022-10-17T21:23:20.929Z,101237.47
2022-10-17T21:26:10.125Z,101244.66
2022-10-17T21:29:03.015Z,101237.69
2022-10-17T21:31:51.808Z,101237.44
2022-10-17T21:34:40.355Z,101229.25
2022-10-17T21:37:28.787Z,101244.84
2022-10-17T21:40:17.517Z,101244.34
2022-10-17T21:43:05.961Z,101242.00
2022-10-17T21:45:55.715Z,101242.06
2022-10-17T21:48:44.522Z,101240.00
2022-10-17T21:51:32.926Z,101251.94
2022-10-17T21:54:23.983Z,101244.94
2022-10-17T21:57:12.473Z,101243.28
2022-10-17T22:00:00.960Z,101236.69
2022-10-17T22:02:50.746Z,101249.41
2022-10-17T22:05:39.187Z,101239.09
2022-10-17T22:08:27.695Z,101260.28
2022-10-17T22:11:18.444Z,101249.84
2022-10-17T22:14:08.762Z,101249.47
2022-10-17T22:16:58.426Z,101259.38
2022-10-17T22:19:48.931Z,101253.16
2022-10-17T22:22:37.423Z,101253.59
2022-10-17T22:25:25.974Z,101254.06
2022-10-17T22:28:14.439Z,101261.50
2022-10-17T22:31:03.417Z,101264.81
2022-10-17T22:33:52.124Z,101254.91
2022-10-17T22:36:41.896Z,101271.03
2022-10-17T22:39:30.386Z,101265.16
2022-10-17T22:42:18.869Z,101276.06
2022-10-17T22:45:07.997Z,101272.97
2022-10-17T22:47:56.454Z,101261.47
2022-10-17T22:50:45.708Z,101272.97
2022-10-17T22:53:37.307Z,101260.78
2022-10-17T22:56:25.817Z,101264.84
2022-10-17T22:59:15.395Z,101270.97
2022-10-17T23:02:03.915Z,101276.75
2022-10-17T23:04:52.470Z,101276.69
2022-10-17T23:07:40.908Z,101269.47
2022-10-17T23:10:30.677Z,101268.72
2022-10-17T23:13:19.867Z,101272.44
2022-10-17T23:16:09.775Z,101269.13
2022-10-17T23:18:59.104Z,101265.03
2022-10-17T23:21:47.564Z,101258.78
2022-10-17T23:24:36.462Z,101263.41
2022-10-17T23:27:26.303Z,101263.19
2022-10-17T23:30:14.746Z,101265.41
2022-10-17T23:33:03.300Z,101262.72
2022-10-17T23:35:51.753Z,101253.59
2022-10-17T23:38:40.608Z,101255.44
2022-10-17T23:41:29.043Z,101262.22
2022-10-17T23:44:19.246Z,101262.63
2022-10-17T23:47:07.655Z,101249.84
2022-10-17T23:49:56.087Z,101260.69
2022-10-17T23:52:46.885Z,101250.19
2022-10-17T23:55:35.337Z,101263.13
2022-10-17T23:58:23.799Z,101253.66
